Archival Weather

Yakutsk

Yakutsk, Russia (UEEE)

Report from: Tuesday, June 6, 2023 1:00 AM JST
Current time: Monday, June 17, 2024 7:04 PM JST

Current weather – Weather history – Daily summaries
Weather forecast

Temperature11.0°C (51.8°F)
Dew point4.0°C (39.2°F)
Winds 7.8 kts (4 m/s, 8.9 mph) Northwest (320°)
Clouds Sky clear
Altimeter29.50 in.Hg (999 mB)
Precip. events QF 3:20 AM
Relative humidity62 %
Density altitude129 ft. (39 m)
Remarks Ceiling and visibility OK
No significant changes expected in the next two hours
Flight conditions Visual Meteorological Conditions
Raw dataUEEE 051600Z 32004MPS CAVOK 11/04 Q0999 R05/09//60 NOSIG RMK QFE740
An error has occurred. This application may no longer respond until reloaded. Reload 🗙